createdAt,value
2022-11-20T00:00:29.068Z,14.50
2022-11-20T00:01:29.165Z,14.40
2022-11-20T00:02:29.032Z,14.90
2022-11-20T00:03:29.052Z,14.70
2022-11-20T00:04:29.041Z,14.90
2022-11-20T00:05:29.055Z,15.80
2022-11-20T00:06:28.991Z,14.60
2022-11-20T00:07:29.012Z,15.00
2022-11-20T00:08:28.971Z,14.90
2022-11-20T00:09:28.954Z,15.00
2022-11-20T00:10:28.943Z,15.20
2022-11-20T00:11:28.917Z,14.80
2022-11-20T00:12:29.127Z,15.40
2022-11-20T00:13:28.885Z,15.30
2022-11-20T00:14:28.879Z,15.60
2022-11-20T00:15:28.885Z,15.30
2022-11-20T00:16:28.881Z,15.60
2022-11-20T00:17:28.846Z,15.60
2022-11-20T00:18:28.845Z,15.00
2022-11-20T00:19:28.853Z,14.40
2022-11-20T00:20:28.820Z,14.40
2022-11-20T00:21:28.773Z,15.90
2022-11-20T00:22:28.772Z,15.00
2022-11-20T00:23:28.784Z,16.00
2022-11-20T00:24:28.748Z,15.10
2022-11-20T00:25:28.748Z,15.60
2022-11-20T00:26:28.710Z,15.80
2022-11-20T00:27:28.710Z,15.90
2022-11-20T00:28:28.710Z,15.10
2022-11-20T00:29:28.736Z,16.30
2022-11-20T00:30:28.665Z,16.30
2022-11-20T00:31:28.679Z,16.30
2022-11-20T00:32:28.655Z,16.00
2022-11-20T00:33:28.660Z,16.40
2022-11-20T00:34:28.644Z,15.40
2022-11-20T00:35:28.625Z,16.20
2022-11-20T00:36:28.607Z,16.40
2022-11-20T00:37:28.586Z,16.10
2022-11-20T00:38:28.608Z,16.00
2022-11-20T00:39:28.580Z,16.40
2022-11-20T00:40:28.564Z,15.40
2022-11-20T00:41:28.611Z,16.30
2022-11-20T00:42:28.511Z,16.40
2022-11-20T00:43:28.502Z,15.20
2022-11-20T00:44:28.673Z,15.70
2022-11-20T00:45:28.497Z,15.70
2022-11-20T00:46:28.502Z,15.30
2022-11-20T00:47:28.446Z,16.90
2022-11-20T00:48:28.450Z,15.90
2022-11-20T00:49:28.445Z,15.40
2022-11-20T00:50:28.423Z,16.60
2022-11-20T00:51:28.428Z,16.20
2022-11-20T00:52:28.405Z,16.90
2022-11-20T00:53:28.381Z,17.20
2022-11-20T00:54:28.372Z,15.90
2022-11-20T00:55:28.336Z,16.20
2022-11-20T00:56:28.340Z,16.90
2022-11-20T00:57:28.325Z,16.40
2022-11-20T00:58:28.332Z,17.20
2022-11-20T00:59:28.304Z,16.70
2022-11-20T01:00:28.300Z,17.00
2022-11-20T01:01:28.361Z,17.50
2022-11-20T01:02:28.256Z,17.00
2022-11-20T01:03:28.237Z,17.50
2022-11-20T01:04:28.260Z,16.00
2022-11-20T01:05:28.231Z,17.00
2022-11-20T01:06:28.211Z,17.60
2022-11-20T01:07:28.207Z,15.90
2022-11-20T01:08:28.186Z,16.80
2022-11-20T01:09:28.193Z,17.80
2022-11-20T01:10:28.165Z,16.20
2022-11-20T01:11:28.154Z,17.50
2022-11-20T01:12:28.635Z,16.80
2022-11-20T01:13:28.122Z,16.20
2022-11-20T01:14:28.099Z,16.60
2022-11-20T01:15:28.129Z,17.30
2022-11-20T01:16:28.202Z,17.20
2022-11-20T01:17:28.116Z,16.90
2022-11-20T01:18:28.048Z,16.80
2022-11-20T01:19:28.025Z,17.00
2022-11-20T01:20:28.051Z,17.10
2022-11-20T01:21:28.030Z,16.50
2022-11-20T01:22:27.989Z,16.40
2022-11-20T01:23:28.094Z,17.10
2022-11-20T01:24:28.030Z,16.80
2022-11-20T01:25:27.979Z,16.80
2022-11-20T01:26:27.963Z,17.70
2022-11-20T01:27:27.950Z,17.00
2022-11-20T01:28:27.930Z,16.60
2022-11-20T01:29:27.935Z,17.10
2022-11-20T01:30:27.939Z,16.60
2022-11-20T01:31:27.918Z,15.90
2022-11-20T01:32:27.874Z,17.40
2022-11-20T01:33:27.866Z,16.80
2022-11-20T01:34:27.847Z,17.00
2022-11-20T01:35:27.823Z,17.90
2022-11-20T01:36:27.829Z,16.90
2022-11-20T01:37:27.880Z,17.90
2022-11-20T01:38:27.812Z,16.60
2022-11-20T01:39:27.771Z,17.40
2022-11-20T01:40:27.752Z,17.20
2022-11-20T01:41:27.790Z,16.60
2022-11-20T01:42:27.749Z,16.90
2022-11-20T01:43:27.827Z,17.00
2022-11-20T01:44:27.717Z,17.20
2022-11-20T01:45:27.729Z,16.40
2022-11-20T01:46:27.711Z,17.00
2022-11-20T01:47:27.673Z,17.30
2022-11-20T01:48:27.681Z,16.40
2022-11-20T01:49:27.644Z,16.60
2022-11-20T01:50:27.648Z,16.00
2022-11-20T01:51:27.620Z,16.20
2022-11-20T01:52:27.606Z,16.50
2022-11-20T01:53:27.627Z,16.50
2022-11-20T01:54:27.579Z,16.90
2022-11-20T01:55:27.557Z,18.00
2022-11-20T01:56:27.596Z,16.40
2022-11-20T01:57:27.550Z,15.70
2022-11-20T01:58:27.555Z,17.20
2022-11-20T01:59:27.539Z,17.30
2022-11-20T02:00:27.511Z,17.40
2022-11-20T02:01:27.537Z,17.60
2022-11-20T02:02:27.483Z,17.30
2022-11-20T02:03:27.503Z,16.90
2022-11-20T02:04:27.453Z,16.70
2022-11-20T02:05:27.446Z,16.30
2022-11-20T02:06:27.448Z,17.20
2022-11-20T02:07:27.457Z,16.60
2022-11-20T02:08:27.385Z,16.50
2022-11-20T02:09:27.432Z,16.70
2022-11-20T02:10:27.357Z,17.40
2022-11-20T02:11:27.412Z,17.20
2022-11-20T02:12:27.338Z,17.30
2022-11-20T02:13:27.339Z,16.30
2022-11-20T02:14:27.373Z,16.30
2022-11-20T02:15:30.311Z,17.50
2022-11-20T02:16:27.311Z,16.80
2022-11-20T02:17:27.305Z,16.10
2022-11-20T02:18:27.286Z,16.40
2022-11-20T02:19:27.324Z,16.60
2022-11-20T02:20:27.231Z,16.50
2022-11-20T02:21:27.264Z,16.60
2022-11-20T02:22:27.243Z,16.70
2022-11-20T02:23:27.197Z,17.40
2022-11-20T02:24:27.202Z,16.20
2022-11-20T02:25:27.188Z,16.00
2022-11-20T02:26:27.170Z,16.70
2022-11-20T02:27:27.168Z,17.30
2022-11-20T02:28:27.171Z,16.60
2022-11-20T02:29:27.169Z,16.60
2022-11-20T02:30:27.143Z,16.10
2022-11-20T02:31:27.099Z,16.30
2022-11-20T02:32:27.073Z,17.00
2022-11-20T02:33:27.091Z,16.00
2022-11-20T02:34:27.071Z,15.60
2022-11-20T02:35:27.118Z,17.60
2022-11-20T02:36:27.035Z,16.50
2022-11-20T02:37:27.015Z,16.60
2022-11-20T02:38:27.008Z,16.30
2022-11-20T02:39:27.007Z,16.20
2022-11-20T02:40:27.000Z,16.30
2022-11-20T02:41:27.046Z,15.60
2022-11-20T02:42:26.962Z,15.80
2022-11-20T02:43:26.952Z,15.70
2022-11-20T02:44:26.933Z,16.80
2022-11-20T02:45:26.957Z,17.40
2022-11-20T02:46:26.912Z,15.90
2022-11-20T02:47:26.908Z,15.40
2022-11-20T02:48:30.128Z,15.90
2022-11-20T02:49:26.923Z,17.10
2022-11-20T02:50:26.855Z,16.50
2022-11-20T02:51:26.867Z,15.80
2022-11-20T02:52:26.840Z,16.20
2022-11-20T02:53:26.859Z,16.80
2022-11-20T02:54:26.794Z,16.20
2022-11-20T02:55:26.784Z,17.20
2022-11-20T02:56:26.782Z,17.20
2022-11-20T02:57:26.768Z,16.60
2022-11-20T02:58:26.767Z,17.40
2022-11-20T02:59:26.740Z,16.80
2022-11-20T03:00:26.734Z,17.50
2022-11-20T03:01:26.781Z,17.70
2022-11-20T03:02:26.728Z,17.50
2022-11-20T03:03:26.828Z,18.10
2022-11-20T03:04:26.662Z,18.50
2022-11-20T03:05:26.686Z,17.10
2022-11-20T03:06:26.642Z,17.10
2022-11-20T03:07:26.706Z,17.40
2022-11-20T03:08:26.609Z,17.00
2022-11-20T03:09:26.625Z,18.00
2022-11-20T03:10:26.614Z,17.80
2022-11-20T03:11:26.578Z,16.90
2022-11-20T03:12:26.578Z,17.20
2022-11-20T03:13:26.567Z,17.20
2022-11-20T03:14:26.556Z,18.80
2022-11-20T03:15:26.558Z,18.30
2022-11-20T03:16:26.533Z,18.30
2022-11-20T03:17:26.547Z,17.80
2022-11-20T03:18:26.506Z,17.20
2022-11-20T03:19:26.500Z,18.40
2022-11-20T03:20:26.459Z,18.40
2022-11-20T03:21:26.500Z,18.10
2022-11-20T03:22:26.463Z,19.00
2022-11-20T03:23:26.458Z,18.20
2022-11-20T03:24:26.427Z,17.90
2022-11-20T03:25:26.407Z,17.60
2022-11-20T03:26:26.404Z,18.10
2022-11-20T03:27:26.374Z,18.80
2022-11-20T03:28:26.375Z,18.30
2022-11-20T03:29:26.368Z,19.00
2022-11-20T03:30:30.529Z,17.80
2022-11-20T03:31:26.353Z,18.50
2022-11-20T03:32:26.302Z,18.00
2022-11-20T03:33:26.346Z,18.50
2022-11-20T03:34:26.306Z,18.40
2022-11-20T03:35:26.334Z,18.20
2022-11-20T03:36:26.275Z,18.90
2022-11-20T03:37:26.248Z,18.70
2022-11-20T03:38:26.229Z,18.60
2022-11-20T03:39:26.310Z,17.90
2022-11-20T03:40:26.229Z,17.70
2022-11-20T03:41:26.246Z,17.90
2022-11-20T03:42:26.179Z,18.70
2022-11-20T03:43:26.203Z,18.40
2022-11-20T03:44:26.177Z,19.20
2022-11-20T03:45:26.159Z,18.40
2022-11-20T03:46:26.166Z,18.30
2022-11-20T03:47:26.162Z,18.60
2022-11-20T03:48:26.097Z,17.50
2022-11-20T03:49:26.106Z,19.00
2022-11-20T03:50:26.084Z,18.70
2022-11-20T03:51:26.081Z,20.00
2022-11-20T03:52:26.064Z,20.70
2022-11-20T03:53:26.083Z,19.40
2022-11-20T03:54:26.072Z,19.00
2022-11-20T03:55:26.025Z,18.80
2022-11-20T03:56:26.012Z,19.00
2022-11-20T03:57:26.012Z,19.60
2022-11-20T03:58:25.990Z,18.90
2022-11-20T03:59:26.023Z,18.00
2022-11-20T04:00:26.009Z,18.70
2022-11-20T04:01:25.974Z,18.20
2022-11-20T04:02:25.936Z,18.50
2022-11-20T04:03:25.929Z,17.20
2022-11-20T04:04:25.915Z,18.40
2022-11-20T04:05:25.911Z,17.80
2022-11-20T04:06:25.909Z,17.80
2022-11-20T04:07:25.913Z,17.50
2022-11-20T04:08:25.861Z,18.90
2022-11-20T04:09:25.883Z,17.60
2022-11-20T04:10:25.856Z,17.80
2022-11-20T04:11:25.816Z,18.40
2022-11-20T04:12:25.816Z,18.00
2022-11-20T04:13:25.797Z,18.80
2022-11-20T04:14:25.794Z,17.30
2022-11-20T04:15:25.753Z,17.40
2022-11-20T04:16:25.747Z,19.10
2022-11-20T04:17:25.781Z,17.50
2022-11-20T04:18:25.729Z,17.00
2022-11-20T04:19:25.715Z,17.70
2022-11-20T04:20:25.712Z,17.50
2022-11-20T04:21:25.677Z,17.80
2022-11-20T04:22:25.705Z,17.20
2022-11-20T04:23:28.668Z,17.50
2022-11-20T04:24:25.673Z,17.10
2022-11-20T04:25:25.636Z,16.60
2022-11-20T04:26:25.612Z,17.70
2022-11-20T04:27:25.612Z,17.00
2022-11-20T04:28:25.593Z,16.90
2022-11-20T04:29:25.616Z,17.80
2022-11-20T04:30:25.624Z,17.40
2022-11-20T04:31:25.546Z,18.30
2022-11-20T04:32:25.545Z,17.30
2022-11-20T04:33:27.087Z,17.50
2022-11-20T04:34:25.541Z,16.80
2022-11-20T04:35:25.547Z,16.90
2022-11-20T04:36:25.574Z,17.60
2022-11-20T04:37:25.482Z,17.80
2022-11-20T04:38:25.488Z,16.70
2022-11-20T04:39:25.445Z,17.60
2022-11-20T04:40:25.453Z,17.20
2022-11-20T04:41:25.466Z,16.30
2022-11-20T04:42:25.410Z,17.40
2022-11-20T04:43:25.395Z,17.70
2022-11-20T04:44:25.394Z,18.00
2022-11-20T04:45:25.368Z,18.60
2022-11-20T04:46:25.391Z,17.50
2022-11-20T04:47:25.384Z,16.50
2022-11-20T04:48:25.370Z,16.60
2022-11-20T04:49:25.582Z,17.90
2022-11-20T04:50:25.319Z,16.70
2022-11-20T04:51:25.283Z,17.90
2022-11-20T04:52:25.331Z,18.30
2022-11-20T04:53:25.327Z,17.90
2022-11-20T04:54:25.374Z,17.20
2022-11-20T04:55:25.231Z,17.10
2022-11-20T04:56:25.241Z,17.70
2022-11-20T04:57:25.201Z,17.90
2022-11-20T04:58:25.228Z,17.90
2022-11-20T04:59:25.199Z,16.70
2022-11-20T05:00:25.187Z,17.90
2022-11-20T05:01:25.378Z,17.30
2022-11-20T05:02:25.196Z,17.60
2022-11-20T05:03:25.125Z,17.40
2022-11-20T05:04:25.158Z,16.60
2022-11-20T05:05:25.102Z,17.30
2022-11-20T05:06:25.118Z,17.00
2022-11-20T05:07:25.194Z,17.00
2022-11-20T05:08:25.086Z,17.90
2022-11-20T05:09:25.119Z,17.30
2022-11-20T05:10:25.066Z,17.90
2022-11-20T05:11:25.043Z,17.40
2022-11-20T05:12:25.032Z,17.20
2022-11-20T05:13:25.010Z,17.30
2022-11-20T05:14:25.022Z,16.80
2022-11-20T05:15:25.024Z,17.40
2022-11-20T05:16:24.997Z,16.50
2022-11-20T05:17:24.951Z,17.40
2022-11-20T05:18:24.955Z,17.00
2022-11-20T05:19:24.942Z,17.50
2022-11-20T05:20:24.937Z,16.30
2022-11-20T05:21:24.930Z,17.00
2022-11-20T05:22:24.896Z,17.10
2022-11-20T05:23:24.895Z,16.90
2022-11-20T05:24:24.874Z,16.70
2022-11-20T05:25:24.884Z,16.90
2022-11-20T05:26:24.840Z,16.90
2022-11-20T05:27:24.855Z,17.00
2022-11-20T05:28:24.863Z,17.50
2022-11-20T05:29:24.834Z,15.80
2022-11-20T05:30:24.822Z,16.80
2022-11-20T05:31:27.554Z,16.90
2022-11-20T05:32:24.808Z,17.30
2022-11-20T05:33:24.748Z,16.50
2022-11-20T05:34:24.746Z,16.80
2022-11-20T05:35:24.730Z,16.80
2022-11-20T05:36:24.738Z,17.30
2022-11-20T05:37:24.696Z,17.10
2022-11-20T05:38:24.768Z,17.10
2022-11-20T05:39:24.674Z,16.50
2022-11-20T05:40:24.649Z,16.80
2022-11-20T05:41:24.672Z,16.20
2022-11-20T05:42:24.653Z,16.30
2022-11-20T05:43:24.619Z,16.20
2022-11-20T05:44:24.644Z,17.40
2022-11-20T05:45:24.627Z,16.50
2022-11-20T05:46:28.295Z,15.70
2022-11-20T05:47:24.589Z,17.80
2022-11-20T05:48:24.567Z,16.70
2022-11-20T05:49:24.534Z,17.50
2022-11-20T05:50:24.543Z,16.10
2022-11-20T05:51:24.542Z,17.30
2022-11-20T05:52:24.505Z,16.00
2022-11-20T05:53:27.565Z,17.00
2022-11-20T05:54:24.507Z,16.50
2022-11-20T05:55:24.471Z,17.20
2022-11-20T05:56:24.455Z,17.70
2022-11-20T05:57:24.428Z,17.00
2022-11-20T05:58:24.464Z,16.70
2022-11-20T05:59:24.525Z,17.00
2022-11-20T06:00:24.407Z,16.70
2022-11-20T06:01:24.385Z,16.60
2022-11-20T06:02:24.504Z,15.80
2022-11-20T06:03:24.382Z,17.00
2022-11-20T06:04:24.366Z,16.10
2022-11-20T06:05:24.350Z,16.30
2022-11-20T06:06:24.335Z,16.60
2022-11-20T06:07:24.363Z,17.50
2022-11-20T06:08:24.295Z,16.30
2022-11-20T06:09:24.297Z,16.80
2022-11-20T06:10:24.292Z,17.70
2022-11-20T06:11:24.264Z,16.90
2022-11-20T06:12:24.280Z,17.00
2022-11-20T06:13:24.232Z,17.00
2022-11-20T06:14:24.212Z,16.50
2022-11-20T06:15:24.195Z,16.20
2022-11-20T06:16:24.203Z,15.70
2022-11-20T06:17:24.203Z,16.60
2022-11-20T06:18:24.182Z,16.90
2022-11-20T06:19:24.298Z,16.50
2022-11-20T06:20:24.149Z,16.00
2022-11-20T06:21:24.118Z,16.70
2022-11-20T06:22:24.118Z,16.00
2022-11-20T06:23:24.103Z,16.90
2022-11-20T06:24:24.146Z,16.80
2022-11-20T06:25:24.086Z,15.50
2022-11-20T06:26:24.079Z,16.10
2022-11-20T06:27:24.053Z,16.70
2022-11-20T06:28:24.048Z,15.20
2022-11-20T06:29:24.338Z,15.60
2022-11-20T06:30:24.020Z,15.70
2022-11-20T06:31:23.993Z,16.20
2022-11-20T06:32:23.997Z,16.00
2022-11-20T06:33:23.987Z,15.90
2022-11-20T06:34:23.961Z,14.20
2022-11-20T06:35:23.961Z,15.60
2022-11-20T06:36:23.975Z,16.70
2022-11-20T06:37:23.924Z,15.40
2022-11-20T06:38:23.985Z,16.00
2022-11-20T06:39:24.263Z,15.80
2022-11-20T06:40:23.886Z,17.40
2022-11-20T06:41:23.876Z,15.10
2022-11-20T06:42:23.873Z,16.20
2022-11-20T06:43:23.895Z,15.50
2022-11-20T06:44:23.824Z,15.90
2022-11-20T06:45:23.819Z,15.70
2022-11-20T06:46:23.812Z,17.10
2022-11-20T06:47:23.799Z,15.90
2022-11-20T06:48:23.873Z,17.00
2022-11-20T06:49:24.036Z,15.90
2022-11-20T06:50:23.775Z,15.90
2022-11-20T06:51:23.727Z,16.70
2022-11-20T06:52:23.722Z,16.50
2022-11-20T06:53:23.720Z,16.80
2022-11-20T06:54:23.698Z,17.60
2022-11-20T06:55:23.728Z,16.90
2022-11-20T06:56:23.716Z,17.80
2022-11-20T06:57:23.699Z,15.90
2022-11-20T06:58:23.660Z,15.80
2022-11-20T06:59:23.960Z,17.10
2022-11-20T07:00:23.640Z,17.30
2022-11-20T07:01:23.741Z,16.60
2022-11-20T07:02:23.623Z,15.20
2022-11-20T07:03:23.593Z,16.90
2022-11-20T07:04:23.582Z,16.50
2022-11-20T07:05:23.547Z,16.90
2022-11-20T07:06:23.557Z,15.20
2022-11-20T07:07:23.582Z,17.10
2022-11-20T07:08:23.531Z,16.30
2022-11-20T07:09:23.954Z,17.20
2022-11-20T07:10:23.507Z,15.80
2022-11-20T07:11:23.540Z,16.20
2022-11-20T07:12:23.492Z,16.30
2022-11-20T07:13:23.449Z,17.30
2022-11-20T07:14:23.435Z,16.30
2022-11-20T07:15:23.424Z,14.80
2022-11-20T07:16:23.474Z,15.80
2022-11-20T07:17:23.422Z,14.80
2022-11-20T07:18:23.385Z,16.30
2022-11-20T07:19:23.637Z,16.90
2022-11-20T07:20:23.380Z,15.70
2022-11-20T07:21:23.343Z,15.00
2022-11-20T07:22:23.369Z,16.00
2022-11-20T07:23:23.324Z,15.50
2022-11-20T07:24:23.327Z,15.40
2022-11-20T07:25:23.299Z,16.00
2022-11-20T07:26:23.299Z,17.20
2022-11-20T07:27:23.294Z,16.80
2022-11-20T07:28:23.275Z,16.10
2022-11-20T07:29:23.503Z,16.80
2022-11-20T07:30:23.245Z,17.80
2022-11-20T07:31:23.313Z,17.20
2022-11-20T07:32:23.217Z,17.20
2022-11-20T07:33:23.185Z,16.90
2022-11-20T07:34:23.195Z,15.70
2022-11-20T07:35:23.171Z,16.80
2022-11-20T07:36:23.154Z,17.10
2022-11-20T07:37:23.131Z,17.80
2022-11-20T07:38:23.145Z,16.90
2022-11-20T07:39:23.351Z,17.10
2022-11-20T07:40:23.094Z,16.40
2022-11-20T07:41:23.117Z,17.90
2022-11-20T07:42:23.099Z,17.90
2022-11-20T07:43:23.069Z,18.40
2022-11-20T07:44:23.078Z,18.10
2022-11-20T07:45:23.043Z,17.00
2022-11-20T07:46:23.021Z,17.70
2022-11-20T07:47:23.013Z,17.70
2022-11-20T07:48:23.048Z,17.70
2022-11-20T07:49:23.160Z,17.20
2022-11-20T07:50:22.997Z,16.70
2022-11-20T07:51:22.968Z,18.10
2022-11-20T07:52:22.947Z,17.30
2022-11-20T07:53:22.928Z,18.30
2022-11-20T07:54:22.935Z,17.00
2022-11-20T07:55:22.934Z,17.00
2022-11-20T07:56:22.899Z,18.00
2022-11-20T07:57:27.103Z,17.90
2022-11-20T07:58:22.910Z,17.00
2022-11-20T07:59:23.069Z,17.80
2022-11-20T08:00:22.842Z,18.40
2022-11-20T08:01:22.891Z,18.50
2022-11-20T08:02:22.833Z,17.50
2022-11-20T08:03:25.162Z,18.10
2022-11-20T08:04:22.845Z,17.70
2022-11-20T08:05:22.804Z,17.90
2022-11-20T08:06:22.776Z,18.50
2022-11-20T08:07:22.829Z,17.80
2022-11-20T08:08:22.774Z,18.30
2022-11-20T08:09:22.976Z,17.20
2022-11-20T08:10:22.710Z,18.90
2022-11-20T08:11:22.719Z,17.90
2022-11-20T08:12:22.700Z,18.40
2022-11-20T08:13:22.683Z,17.80
2022-11-20T08:14:22.674Z,18.10
2022-11-20T08:15:22.659Z,17.80
2022-11-20T08:16:22.648Z,18.40
2022-11-20T08:17:22.660Z,18.90
2022-11-20T08:18:31.629Z,18.20
2022-11-20T08:19:22.877Z,17.40
2022-11-20T08:20:22.605Z,18.20
2022-11-20T08:21:22.573Z,18.50
2022-11-20T08:22:22.582Z,17.90
2022-11-20T08:23:22.544Z,17.60
2022-11-20T08:24:22.552Z,19.00
2022-11-20T08:25:22.522Z,18.00
2022-11-20T08:26:22.516Z,17.90
2022-11-20T08:27:22.521Z,17.70
2022-11-20T08:28:22.586Z,18.50
2022-11-20T08:29:22.788Z,18.30
2022-11-20T08:30:22.501Z,18.00
2022-11-20T08:31:22.448Z,17.20
2022-11-20T08:32:22.430Z,17.90
2022-11-20T08:33:22.444Z,18.10
2022-11-20T08:34:22.396Z,17.80
2022-11-20T08:35:22.384Z,17.10
2022-11-20T08:36:22.374Z,16.00
2022-11-20T08:37:22.391Z,17.20
2022-11-20T08:38:22.359Z,16.00
2022-11-20T08:39:22.426Z,16.20
2022-11-20T08:40:22.322Z,17.00
2022-11-20T08:41:22.322Z,15.90
2022-11-20T08:42:22.293Z,16.40
2022-11-20T08:43:22.328Z,16.10
2022-11-20T08:44:22.287Z,15.80
2022-11-20T08:45:22.275Z,15.70
2022-11-20T08:46:22.264Z,15.20
2022-11-20T08:47:22.223Z,15.80
2022-11-20T08:48:22.241Z,14.60
2022-11-20T08:49:22.464Z,16.20
2022-11-20T08:50:22.220Z,15.70
2022-11-20T08:51:22.177Z,15.30
2022-11-20T08:52:22.186Z,15.70
2022-11-20T08:53:22.152Z,15.80
2022-11-20T08:54:22.181Z,15.30
2022-11-20T08:55:22.142Z,16.50
2022-11-20T08:56:22.128Z,15.60
2022-11-20T08:57:22.125Z,15.50
2022-11-20T08:58:22.111Z,16.40
2022-11-20T09:00:04.427Z,16.50
2022-11-20T09:00:22.182Z,13.70
2022-11-20T09:01:22.173Z,14.60
2022-11-20T09:02:22.120Z,14.50
2022-11-20T09:03:22.044Z,15.40
2022-11-20T09:04:22.028Z,15.90
2022-11-20T09:05:22.065Z,16.00
2022-11-20T09:06:22.035Z,16.30
2022-11-20T09:07:22.053Z,15.30
2022-11-20T09:08:22.001Z,15.80
2022-11-20T09:09:22.250Z,15.40
2022-11-20T09:10:24.436Z,15.60
2022-11-20T09:11:21.966Z,15.60
2022-11-20T09:12:21.946Z,15.90
2022-11-20T09:13:21.920Z,15.40
2022-11-20T09:14:21.908Z,15.90
2022-11-20T09:15:21.910Z,15.00
2022-11-20T09:16:21.884Z,15.90
2022-11-20T09:17:21.879Z,15.10
2022-11-20T09:18:21.879Z,14.90
2022-11-20T09:19:35.567Z,15.70
2022-11-20T09:20:21.863Z,15.50
2022-11-20T09:21:21.849Z,15.70
2022-11-20T09:22:21.813Z,15.30
2022-11-20T09:23:21.790Z,15.90
2022-11-20T09:24:21.849Z,14.70
2022-11-20T09:25:21.785Z,16.30
2022-11-20T09:26:21.806Z,14.60
2022-11-20T09:27:21.743Z,14.80
2022-11-20T09:28:21.713Z,14.60
2022-11-20T09:29:22.013Z,14.60
2022-11-20T09:30:21.737Z,14.40
2022-11-20T09:31:21.749Z,15.40
2022-11-20T09:32:21.696Z,16.20
2022-11-20T09:33:21.676Z,15.80
2022-11-20T09:34:21.662Z,14.90
2022-11-20T09:35:21.720Z,16.30
2022-11-20T09:36:21.625Z,14.40
2022-11-20T09:37:21.619Z,14.70
2022-11-20T09:38:21.621Z,14.20
2022-11-20T09:39:21.751Z,14.70
2022-11-20T09:40:21.579Z,15.50
2022-11-20T09:41:21.600Z,15.40
2022-11-20T09:42:21.570Z,14.70
2022-11-20T09:43:21.573Z,14.50
2022-11-20T09:44:21.524Z,16.00
2022-11-20T09:45:21.516Z,14.40
2022-11-20T09:46:21.496Z,15.60
2022-11-20T09:47:21.505Z,16.30
2022-11-20T09:48:21.540Z,16.20
2022-11-20T09:49:21.909Z,16.20
2022-11-20T09:50:21.432Z,14.80
2022-11-20T09:51:21.535Z,15.50
2022-11-20T09:52:21.492Z,15.20
2022-11-20T09:53:21.441Z,16.30
2022-11-20T09:54:21.423Z,15.50
2022-11-20T09:55:21.369Z,15.40
2022-11-20T09:56:22.843Z,15.60
2022-11-20T09:57:21.333Z,14.80
2022-11-20T09:58:21.363Z,17.10
2022-11-20T09:59:21.735Z,17.20
2022-11-20T10:00:21.300Z,17.40
2022-11-20T10:01:21.973Z,16.60
2022-11-20T10:02:21.630Z,16.10
2022-11-20T10:03:21.941Z,16.30
2022-11-20T10:04:20.355Z,16.60
2022-11-20T10:05:21.942Z,16.60
2022-11-20T10:06:21.372Z,16.30
2022-11-20T10:07:36.763Z,16.60
2022-11-20T10:08:22.093Z,17.40
2022-11-20T10:09:21.564Z,17.00
2022-11-20T10:10:21.347Z,18.00
2022-11-20T10:11:21.295Z,16.50
2022-11-20T10:12:22.665Z,17.70
2022-11-20T10:13:21.146Z,16.50
2022-11-20T10:14:21.162Z,16.20
2022-11-20T10:15:21.138Z,17.60
2022-11-20T10:16:21.127Z,16.50
2022-11-20T10:17:21.173Z,16.60
2022-11-20T10:18:21.108Z,17.80
2022-11-20T10:19:21.313Z,17.00
2022-11-20T10:20:21.047Z,17.80
2022-11-20T10:21:21.089Z,16.90
2022-11-20T10:22:21.024Z,18.10
2022-11-20T10:23:25.622Z,17.70
2022-11-20T10:24:21.059Z,17.60
2022-11-20T10:25:21.012Z,17.40
2022-11-20T10:26:20.993Z,17.70
2022-11-20T10:27:20.986Z,18.20
2022-11-20T10:28:20.997Z,18.00
2022-11-20T10:29:20.923Z,17.60
2022-11-20T10:30:20.985Z,17.90
2022-11-20T10:31:20.895Z,17.80
2022-11-20T10:32:20.948Z,17.60
2022-11-20T10:33:20.879Z,17.70
2022-11-20T10:34:22.999Z,17.70
2022-11-20T10:35:20.873Z,16.70
2022-11-20T10:36:20.845Z,18.10
2022-11-20T10:37:20.880Z,17.80
2022-11-20T10:38:20.816Z,17.20
2022-11-20T10:39:21.589Z,17.00
2022-11-20T10:40:20.824Z,16.90
2022-11-20T10:41:20.871Z,17.90
2022-11-20T10:42:20.799Z,16.70
2022-11-20T10:43:20.760Z,16.90
2022-11-20T10:44:21.058Z,17.70
2022-11-20T10:45:20.735Z,17.50
2022-11-20T10:46:20.760Z,17.50
2022-11-20T10:47:20.726Z,17.90
2022-11-20T10:48:20.695Z,16.70
2022-11-20T10:49:21.114Z,17.50
2022-11-20T10:50:22.471Z,17.30
2022-11-20T10:51:20.690Z,16.60
2022-11-20T10:52:20.646Z,18.10
2022-11-20T10:53:20.688Z,17.50
2022-11-20T10:54:20.613Z,16.50
2022-11-20T10:55:20.617Z,17.90
2022-11-20T10:56:20.634Z,16.10
2022-11-20T10:57:20.616Z,16.90
2022-11-20T10:58:20.620Z,16.90
2022-11-20T10:59:20.808Z,17.20
2022-11-20T11:00:20.581Z,17.30
2022-11-20T11:01:20.654Z,17.90
2022-11-20T11:02:20.557Z,18.20
2022-11-20T11:03:20.602Z,16.80
2022-11-20T11:04:20.564Z,17.90
2022-11-20T11:05:20.565Z,17.70
2022-11-20T11:06:20.487Z,16.00
2022-11-20T11:07:20.519Z,16.80
2022-11-20T11:08:20.424Z,17.50
2022-11-20T11:09:20.778Z,17.70
2022-11-20T11:10:20.436Z,17.50
2022-11-20T11:11:20.380Z,17.70
2022-11-20T11:12:20.372Z,18.00
2022-11-20T11:13:20.376Z,17.90
2022-11-20T11:14:20.337Z,18.40
2022-11-20T11:15:20.340Z,18.50
2022-11-20T11:16:20.369Z,19.30
2022-11-20T11:17:20.319Z,19.20
2022-11-20T11:18:20.293Z,18.70
2022-11-20T11:19:20.643Z,17.80
2022-11-20T11:20:20.291Z,18.30
2022-11-20T11:21:20.288Z,18.50
2022-11-20T11:22:20.334Z,18.90
2022-11-20T11:23:20.270Z,17.20
2022-11-20T11:24:41.234Z,18.00
2022-11-20T11:25:20.258Z,17.10
2022-11-20T11:26:20.362Z,18.40
2022-11-20T11:27:20.199Z,18.00
2022-11-20T11:28:20.240Z,19.60
2022-11-20T11:29:20.722Z,18.90
2022-11-20T11:30:20.139Z,18.50
2022-11-20T11:31:20.146Z,18.20
2022-11-20T11:32:20.115Z,19.90
2022-11-20T11:33:20.169Z,17.80
2022-11-20T11:34:20.118Z,18.80
2022-11-20T11:35:20.089Z,18.10
2022-11-20T11:36:20.060Z,17.80
2022-11-20T11:37:20.078Z,18.20
2022-11-20T11:38:20.088Z,18.30
2022-11-20T11:39:20.617Z,17.10
2022-11-20T11:40:24.397Z,17.30
2022-11-20T11:41:20.014Z,18.60
2022-11-20T11:42:20.167Z,17.30
2022-11-20T11:43:19.989Z,16.70
2022-11-20T11:44:19.980Z,17.00
2022-11-20T11:45:19.954Z,16.50
2022-11-20T11:46:19.938Z,16.90
2022-11-20T11:47:19.942Z,15.90
2022-11-20T11:48:19.956Z,17.00
2022-11-20T11:49:19.980Z,16.00
2022-11-20T11:50:19.930Z,15.80
2022-11-20T11:51:19.915Z,17.30
2022-11-20T11:52:19.887Z,17.00
2022-11-20T11:53:19.877Z,16.60
2022-11-20T11:54:19.831Z,16.10
2022-11-20T11:55:19.849Z,16.30
2022-11-20T11:56:19.823Z,16.30
2022-11-20T11:57:19.798Z,17.00
2022-11-20T11:58:19.795Z,16.80
2022-11-20T11:59:19.808Z,16.60
2022-11-20T12:00:19.742Z,17.00
2022-11-20T12:01:19.766Z,16.80
2022-11-20T12:02:19.884Z,15.90
2022-11-20T12:03:19.743Z,17.10
2022-11-20T12:04:19.736Z,15.80
2022-11-20T12:05:19.724Z,16.70
2022-11-20T12:06:19.660Z,17.20
2022-11-20T12:07:44.979Z,16.60
2022-11-20T12:08:19.698Z,15.20
2022-11-20T12:09:19.657Z,16.60
2022-11-20T12:10:19.633Z,16.20
2022-11-20T12:11:19.613Z,17.30
2022-11-20T12:12:19.586Z,15.70
2022-11-20T12:13:19.591Z,16.50
2022-11-20T12:14:19.573Z,16.50
2022-11-20T12:15:19.576Z,16.70
2022-11-20T12:16:19.565Z,15.30
2022-11-20T12:17:19.553Z,16.70
2022-11-20T12:18:19.527Z,14.40
2022-11-20T12:19:19.497Z,16.40
2022-11-20T12:20:19.490Z,14.90
2022-11-20T12:21:19.474Z,15.60
2022-11-20T12:22:19.464Z,15.20
2022-11-20T12:23:19.460Z,14.30
2022-11-20T12:24:19.438Z,15.90
2022-11-20T12:25:19.443Z,14.30
2022-11-20T12:26:19.398Z,15.50
2022-11-20T12:27:19.433Z,15.60
2022-11-20T12:28:19.381Z,13.40
2022-11-20T12:29:19.364Z,14.40
2022-11-20T12:30:19.359Z,14.80
2022-11-20T12:31:19.350Z,15.00
2022-11-20T12:32:19.322Z,15.10
2022-11-20T12:33:19.321Z,14.90
2022-11-20T12:34:19.297Z,15.10
2022-11-20T12:35:19.433Z,14.80
2022-11-20T12:36:19.304Z,16.10
2022-11-20T12:37:19.279Z,15.10
2022-11-20T12:38:19.259Z,15.90
2022-11-20T12:39:19.247Z,13.50
2022-11-20T12:40:19.247Z,14.20
2022-11-20T12:41:19.238Z,14.20
2022-11-20T12:42:19.207Z,13.20
2022-11-20T12:43:19.205Z,14.50
2022-11-20T12:44:19.235Z,15.50
2022-11-20T12:45:19.222Z,14.30
2022-11-20T12:46:19.158Z,14.40
2022-11-20T12:47:19.135Z,12.80
2022-11-20T12:48:19.145Z,12.90
2022-11-20T12:49:19.173Z,11.40
2022-11-20T12:50:19.110Z,11.30
2022-11-20T12:51:19.101Z,10.80
2022-11-20T12:52:19.087Z,8.80